Time;durP1;ratioP1;P1;durP2;ratioP2;P2;SDS_P1;SDS_P2;PMS_P1;PMS_P2;Temp;Humidity;BMP_temperature;BMP_pressure;BME280_temperature;BME280_humidity;BME280_pressure;Samples;Min_cycle;Max_cycle;Signal;HPM_P1;HPM_P2
2024/01/06 00:00:53;;;;;;;4.85;1.73;;;;;;;3.34;100.00;97290.31;15293765;19;20019;-57
2024/01/06 00:06:20;;;;;;;2.80;1.40;;;;;;;3.23;100.00;97293.97;15291072;19;20010;-53
2024/01/06 00:11:47;;;;;;;3.15;1.60;;;;;;;3.19;100.00;97294.41;15295578;19;20359;-55
2024/01/06 00:17:13;;;;;;;3.85;1.50;;;;;;;3.14;100.00;97293.97;15292856;19;20018;-56
2024/01/06 00:22:38;;;;;;;2.45;1.42;;;;;;;3.08;100.00;97296.25;15286262;19;20014;-52
2024/01/06 00:28:05;;;;;;;4.18;1.55;;;;;;;3.02;100.00;97291.47;15281418;19;20094;-52
2024/01/06 00:33:31;;;;;;;5.60;1.60;;;;;;;2.98;100.00;97294.56;15291750;19;20292;-55
2024/01/06 00:38:55;;;;;;;2.47;1.40;;;;;;;2.95;100.00;97295.69;15288192;19;20021;-52
2024/01/06 00:44:22;;;;;;;4.10;1.50;;;;;;;2.93;100.00;97294.97;15288987;19;20035;-54
2024/01/06 00:49:47;;;;;;;3.35;1.75;;;;;;;2.92;100.00;97298.63;15288116;19;20014;-54
2024/01/06 00:55:13;;;;;;;4.75;1.40;;;;;;;2.85;100.00;97298.34;15291144;19;20054;-54
2024/01/06 01:00:40;;;;;;;6.45;1.90;;;;;;;2.77;100.00;97295.56;15285989;19;20048;-57
2024/01/06 01:06:05;;;;;;;4.65;1.80;;;;;;;2.70;100.00;97300.59;15287200;19;20070;-56
2024/01/06 01:11:30;;;;;;;5.95;1.70;;;;;;;2.66;100.00;97315.13;15289591;19;20014;-54
2024/01/06 01:16:57;;;;;;;6.35;2.00;;;;;;;2.64;100.00;97316.25;15285574;19;20905;-55
2024/01/06 01:22:23;;;;;;;2.58;1.70;;;;;;;2.62;100.00;97319.88;15289258;19;20014;-52
2024/01/06 01:27:54;;;;;;;4.85;1.80;;;;;;;2.61;100.00;97322.69;15283703;19;20018;-54
2024/01/06 01:33:22;;;;;;;4.28;1.83;;;;;;;2.60;100.00;97331.66;15283593;19;20023;-56
2024/01/06 01:38:46;;;;;;;7.00;2.00;;;;;;;2.60;100.00;97336.97;15285443;19;20025;-56
2024/01/06 01:44:12;;;;;;;5.43;2.13;;;;;;;2.58;100.00;97349.56;15286228;19;20546;-52
2024/01/06 01:49:39;;;;;;;4.35;1.77;;;;;;;2.51;100.00;97351.09;15284654;19;20037;-54
2024/01/06 01:55:04;;;;;;;3.45;1.65;;;;;;;2.39;100.00;97361.84;15282617;19;20033;-59
2024/01/06 02:00:29;;;;;;;3.50;1.52;;;;;;;2.35;100.00;97367.56;15288437;19;20035;-54
2024/01/06 02:05:56;;;;;;;4.85;1.77;;;;;;;2.27;100.00;97368.25;15280957;19;20082;-54
2024/01/06 02:11:21;;;;;;;5.75;1.98;;;;;;;2.19;100.00;97368.91;15285571;19;20058;-53
2024/01/06 02:16:46;;;;;;;4.88;1.80;;;;;;;2.15;100.00;97373.66;15285063;19;20082;-55
2024/01/06 02:22:13;;;;;;;7.63;2.00;;;;;;;2.22;100.00;97379.28;15286048;19;20018;-55
2024/01/06 02:27:38;;;;;;;5.28;2.33;;;;;;;2.29;100.00;97380.41;15284188;19;20022;-54
2024/01/06 02:33:02;;;;;;;5.95;2.00;;;;;;;2.31;100.00;97389.09;15286479;19;20024;-53
2024/01/06 02:38:29;;;;;;;4.97;2.00;;;;;;;2.31;100.00;97391.75;15281735;19;20025;-52
2024/01/06 02:43:56;;;;;;;6.70;1.95;;;;;;;2.34;100.00;97385.31;15297011;19;20413;-55
2024/01/06 02:49:21;;;;;;;5.35;1.85;;;;;;;2.39;100.00;97391.06;15294106;19;20081;-53
2024/01/06 02:54:48;;;;;;;6.18;1.77;;;;;;;2.45;100.00;97390.53;15298086;19;20383;-54
2024/01/06 03:00:14;;;;;;;3.95;1.70;;;;;;;2.49;100.00;97393.75;15301962;19;20010;-57
2024/01/06 03:05:38;;;;;;;3.97;1.48;;;;;;;2.51;100.00;97406.91;15296337;19;20029;-56
2024/01/06 03:11:06;;;;;;;3.47;1.52;;;;;;;2.47;100.00;97398.34;15295379;19;20021;-55
2024/01/06 03:16:31;;;;;;;5.13;1.83;;;;;;;2.50;100.00;97403.41;15297799;19;20039;-54
2024/01/06 03:21:56;;;;;;;5.70;1.85;;;;;;;2.49;100.00;97408.88;15294836;19;20017;-57
2024/01/06 03:27:23;;;;;;;3.60;1.60;;;;;;;2.50;100.00;97410.56;15293675;19;20359;-55
2024/01/06 03:32:49;;;;;;;5.13;1.90;;;;;;;2.47;100.00;97417.81;15294655;19;20022;-55
2024/01/06 03:38:13;;;;;;;4.03;1.70;;;;;;;2.45;100.00;97405.66;15290833;19;21257;-53
2024/01/06 03:43:40;;;;;;;4.25;1.70;;;;;;;2.39;100.00;97409.69;15295465;19;20018;-55
2024/01/06 03:49:05;;;;;;;4.88;1.83;;;;;;;2.33;100.00;97410.22;15289363;19;20097;-54
2024/01/06 03:54:30;;;;;;;3.30;1.50;;;;;;;2.26;100.00;97414.38;15292203;19;20109;-54
2024/01/06 03:59:57;;;;;;;5.32;1.70;;;;;;;2.20;100.00;97417.56;15295548;19;20026;-53
2024/01/06 04:05:22;;;;;;;4.40;1.58;;;;;;;2.11;100.00;97414.75;15287017;19;20029;-52
2024/01/06 04:10:46;;;;;;;2.83;1.75;;;;;;;2.07;100.00;97425.75;15286484;19;20017;-53
2024/01/06 04:16:13;;;;;;;2.60;1.70;;;;;;;2.00;100.00;97436.91;15291828;19;20074;-53
2024/01/06 04:21:38;;;;;;;4.40;1.83;;;;;;;1.95;100.00;97435.63;15291745;19;20089;-53
2024/01/06 04:27:04;;;;;;;5.47;1.83;;;;;;;1.96;100.00;97434.66;15288605;19;20029;-53
2024/01/06 04:32:31;;;;;;;6.53;1.60;;;;;;;2.06;100.00;97437.38;15292334;19;20018;-54
2024/01/06 04:37:57;;;;;;;4.18;1.75;;;;;;;2.09;100.00;97445.06;15285983;19;20018;-52
2024/01/06 04:43:21;;;;;;;6.03;1.67;;;;;;;2.14;100.00;97440.19;15288695;19;20029;-54
2024/01/06 04:48:48;;;;;;;5.72;1.73;;;;;;;2.18;100.00;97443.41;15290042;19;20093;-55
2024/01/06 04:54:13;;;;;;;4.63;1.40;;;;;;;2.19;100.00;97439.78;15287825;19;20017;-53
2024/01/06 04:59:38;;;;;;;5.35;1.80;;;;;;;2.17;100.00;97439.94;15282254;19;20022;-51
2024/01/06 05:05:05;;;;;;;3.50;1.75;;;;;;;2.14;100.00;97446.38;15284450;19;20031;-53
2024/01/06 05:10:31;;;;;;;4.18;1.52;;;;;;;2.10;100.00;97434.31;15287041;19;20018;-51
2024/01/06 05:15:55;;;;;;;4.40;1.75;;;;;;;2.07;100.00;97433.72;15281609;19;20035;-51
2024/01/06 05:21:23;;;;;;;7.90;1.88;;;;;;;2.02;100.00;97455.38;15291874;19;20018;-52
2024/01/06 05:26:47;;;;;;;4.68;1.80;;;;;;;1.98;100.00;97462.78;15287236;19;20383;-52
2024/01/06 05:32:12;;;;;;;3.42;1.80;;;;;;;1.93;100.00;97466.81;15288938;19;20082;-53
2024/01/06 05:37:41;;;;;;;3.92;1.60;;;;;;;1.90;100.00;97461.75;15284480;19;20018;-54
2024/01/06 05:43:06;;;;;;;3.97;1.80;;;;;;;1.82;100.00;97457.06;15281956;19;20027;-56
2024/01/06 05:48:30;;;;;;;3.80;1.70;;;;;;;1.77;100.00;97470.75;15279348;19;20014;-53
2024/01/06 05:53:57;;;;;;;4.30;1.83;;;;;;;1.72;100.00;97475.59;15287811;19;20025;-56
2024/01/06 05:59:22;;;;;;;4.53;1.92;;;;;;;1.75;100.00;97495.75;15284744;19;20086;-56
2024/01/06 06:04:54;;;;;;;4.63;1.80;;;;;;;1.76;100.00;97498.28;15286643;19;20021;-54
2024/01/06 06:10:22;;;;;;;4.80;1.77;;;;;;;1.80;100.00;97501.50;15283051;19;20018;-53
2024/01/06 06:15:47;;;;;;;5.03;1.90;;;;;;;1.83;100.00;97506.56;15295260;19;20015;-55
2024/01/06 06:21:12;;;;;;;5.18;2.00;;;;;;;1.84;100.00;97517.06;15297503;19;20358;-53
2024/01/06 06:26:40;;;;;;;3.97;1.58;;;;;;;1.85;100.00;97518.75;15297892;19;20025;-53
2024/01/06 06:32:12;;;;;;;5.10;1.90;;;;;;;1.84;100.00;97535.63;15298121;19;20017;-55
2024/01/06 06:37:37;;;;;;;4.57;1.63;;;;;;;1.85;100.00;97534.66;15295754;19;20082;-56
2024/01/06 06:43:04;;;;;;;5.43;2.10;;;;;;;1.85;100.00;97545.28;15296994;19;20513;-55
2024/01/06 06:48:29;;;;;;;4.57;1.90;;;;;;;1.89;100.00;97567.13;15293287;19;20026;-54
2024/01/06 06:53:53;;;;;;;5.82;2.10;;;;;;;1.94;100.00;97566.78;15294418;19;20014;-56
2024/01/06 06:59:20;;;;;;;6.03;2.20;;;;;;;1.99;100.00;97577.84;15293475;19;20094;-54
2024/01/06 07:04:45;;;;;;;4.50;1.90;;;;;;;2.04;100.00;97594.25;15298642;19;20029;-54
2024/01/06 07:10:10;;;;;;;4.32;2.00;;;;;;;2.10;100.00;97616.81;15299551;19;20018;-52
2024/01/06 07:15:38;;;;;;;4.65;1.80;;;;;;;2.15;100.00;97610.13;15293511;19;20019;-56
2024/01/06 07:21:03;;;;;;;4.60;1.95;;;;;;;2.23;100.00;97621.94;15299094;19;20385;-56
2024/01/06 07:26:27;;;;;;;5.50;2.50;;;;;;;2.26;100.00;97627.00;15286235;19;20015;-54
2024/01/06 07:32:01;;;;;;;7.03;1.90;;;;;;;2.29;100.00;97632.88;15291183;19;20018;-54
2024/01/06 07:37:26;;;;;;;5.00;2.10;;;;;;;2.34;100.00;97639.66;15295126;19;20420;-51
2024/01/06 07:42:51;;;;;;;6.85;2.20;;;;;;;2.37;100.00;97655.31;15295884;19;20015;-55
2024/01/06 07:48:18;;;;;;;3.97;2.42;;;;;;;2.41;100.00;97657.59;15290913;19;20086;-55
2024/01/06 07:53:43;;;;;;;4.72;1.80;;;;;;;2.42;100.00;97661.94;15294886;19;20367;-55
2024/01/06 07:59:08;;;;;;;5.80;2.25;;;;;;;2.45;100.00;97664.34;15280351;19;20011;-55
2024/01/06 08:04:36;;;;;;;5.07;2.05;;;;;;;2.50;100.00;97671.94;15294702;19;20010;-54
2024/01/06 08:10:04;;;;;;;4.45;2.20;;;;;;;2.56;100.00;97673.22;15289272;19;20857;-54
2024/01/06 08:15:29;;;;;;;4.60;2.22;;;;;;;2.61;100.00;97677.19;15284613;19;20019;-57
2024/01/06 08:20:56;;;;;;;4.10;2.20;;;;;;;2.66;100.00;97687.44;15299831;19;20022;-56
2024/01/06 08:26:22;;;;;;;5.63;2.10;;;;;;;2.72;100.00;97691.38;15286940;19;20879;-64
2024/01/06 08:31:47;;;;;;;6.60;2.33;;;;;;;2.78;100.00;97696.19;15278682;19;20010;-62
2024/01/06 08:37:14;;;;;;;5.53;3.08;;;;;;;2.81;100.00;97695.09;15279873;19;20018;-63
2024/01/06 08:42:39;;;;;;;5.20;2.65;;;;;;;2.84;100.00;97706.31;15290476;19;20354;-63
2024/01/06 08:48:03;;;;;;;4.00;2.50;;;;;;;2.90;100.00;97718.25;15289169;19;20838;-63
2024/01/06 08:53:30;;;;;;;5.93;2.30;;;;;;;2.93;100.00;97721.50;15288510;19;20819;-63
2024/01/06 08:58:56;;;;;;;5.38;2.47;;;;;;;3.00;100.00;97716.50;15286532;19;20372;-63
2024/01/06 09:04:22;;;;;;;3.50;2.00;;;;;;;3.04;100.00;97712.59;15287218;19;20471;-63
2024/01/06 09:09:49;;;;;;;2.95;1.90;;;;;;;3.09;100.00;97714.88;15288787;19;20014;-63
2024/01/06 09:15:15;;;;;;;3.88;2.10;;;;;;;3.16;100.00;97728.50;15291477;19;20019;-64
2024/01/06 09:20:39;;;;;;;5.32;2.28;;;;;;;3.22;100.00;97733.31;15284179;19;20047;-64
2024/01/06 09:26:06;;;;;;;5.45;2.65;;;;;;;3.30;100.00;97744.13;15287870;19;20018;-64
2024/01/06 09:31:31;;;;;;;3.83;2.42;;;;;;;3.34;100.00;97734.06;15288008;19;20086;-63
2024/01/06 09:36:56;;;;;;;6.00;2.72;;;;;;;3.39;100.00;97751.31;15284404;19;20019;-63
2024/01/06 09:42:23;;;;;;;4.20;2.60;;;;;;;3.44;100.00;97752.75;15285076;19;20102;-64
2024/01/06 09:47:51;;;;;;;6.70;2.60;;;;;;;3.45;100.00;97767.75;15294041;19;20039;-65
2024/01/06 09:53:19;;;;;;;6.32;2.90;;;;;;;3.53;100.00;97760.75;15315617;19;20535;-63
2024/01/06 09:58:47;;;;;;;5.00;2.83;;;;;;;3.63;100.00;97760.81;15314340;19;20093;-64
2024/01/06 10:04:11;;;;;;;6.60;2.80;;;;;;;3.69;100.00;97762.97;15316819;19;20018;-64
2024/01/06 10:09:41;;;;;;;4.43;2.75;;;;;;;3.70;100.00;97767.28;15313648;19;20093;-65
2024/01/06 10:15:08;;;;;;;5.30;2.67;;;;;;;3.75;100.00;97755.38;15311955;19;20027;-66
2024/01/06 10:20:33;;;;;;;4.00;2.60;;;;;;;3.79;100.00;97759.47;15306833;19;20031;-64
2024/01/06 10:26:01;;;;;;;5.05;2.58;;;;;;;3.92;100.00;97760.09;15307474;19;20030;-65
2024/01/06 10:31:29;;;;;;;5.40;2.70;;;;;;;4.02;100.00;97754.78;15308072;19;20014;-65
2024/01/06 10:36:54;;;;;;;4.80;2.80;;;;;;;4.11;100.00;97750.44;15311746;19;20025;-65
2024/01/06 10:42:19;;;;;;;6.25;3.10;;;;;;;4.21;100.00;97751.31;15310654;19;20081;-64
2024/01/06 10:47:50;;;;;;;5.07;3.22;;;;;;;4.30;100.00;97737.16;15313865;19;20018;-66
2024/01/06 10:53:16;;;;;;;6.00;3.00;;;;;;;4.34;100.00;97736.88;15310986;19;20111;-65
2024/01/06 10:58:45;;;;;;;5.88;2.97;;;;;;;4.36;100.00;97732.25;15307652;19;20021;-65
2024/01/06 11:04:13;;;;;;;4.03;3.15;;;;;;;4.40;100.00;97728.34;15299551;19;20086;-63
2024/01/06 11:09:44;;;;;;;6.75;3.67;;;;;;;4.51;100.00;97724.66;15287058;19;20023;-64
2024/01/06 11:15:09;;;;;;;4.88;3.30;;;;;;;4.58;100.00;97729.31;15336871;19;20018;-65
2024/01/06 11:20:37;;;;;;;6.85;3.25;;;;;;;4.61;100.00;97731.72;15296508;19;20082;-64
2024/01/06 11:26:02;;;;;;;4.10;2.70;;;;;;;4.67;100.00;97740.09;15296810;19;20015;-64
2024/01/06 11:31:27;;;;;;;7.60;3.58;;;;;;;4.73;100.00;97748.41;15299029;19;20014;-65
2024/01/06 11:36:54;;;;;;;5.15;3.08;;;;;;;4.82;100.00;97729.88;15295444;19;20018;-65
2024/01/06 11:42:20;;;;;;;4.90;2.50;;;;;;;4.86;100.00;97737.44;15292047;19;20571;-64
2024/01/06 11:47:50;;;;;;;5.13;2.40;;;;;;;4.97;100.00;97732.94;15293586;19;20086;-65
2024/01/06 11:53:18;;;;;;;4.45;2.42;;;;;;;5.03;100.00;97729.69;15291531;19;20028;-65
2024/01/06 11:58:43;;;;;;;11.50;8.13;;;;;;;5.05;100.00;97725.06;15288328;19;20046;-65
2024/01/06 12:04:07;;;;;;;4.75;3.22;;;;;;;5.11;100.00;97728.97;15292506;19;20021;-66
2024/01/06 12:09:35;;;;;;;5.82;3.17;;;;;;;5.23;100.00;97739.34;15290911;19;20388;-63
2024/01/06 12:15:00;;;;;;;4.05;2.70;;;;;;;5.31;100.00;97724.44;15287279;19;20021;-64
2024/01/06 12:20:26;;;;;;;4.50;2.60;;;;;;;5.28;100.00;97724.72;15295422;19;20025;-63
2024/01/06 12:25:53;;;;;;;4.05;2.63;;;;;;;5.30;100.00;97739.59;15291573;19;20614;-65
2024/01/06 12:31:19;;;;;;;4.55;2.40;;;;;;;5.36;100.00;97744.38;15034362;19;5001356;-64
2024/01/06 12:36:46;;;;;;;4.82;2.70;;;;;;;5.40;100.00;97747.59;15290807;19;20022;-64
2024/01/06 12:42:19;;;;;;;5.00;2.50;;;;;;;5.45;100.00;97753.34;15293593;19;20432;-64
2024/01/06 12:47:45;;;;;;;4.13;2.20;;;;;;;5.52;100.00;97751.78;15285722;19;20085;-64
2024/01/06 12:53:11;;;;;;;5.03;2.60;;;;;;;5.63;100.00;97741.88;15285450;19;20523;-64
2024/01/06 12:58:39;;;;;;;3.30;2.20;;;;;;;5.72;100.00;97732.97;15282991;19;20390;-66
2024/01/06 13:04:04;;;;;;;4.03;2.88;;;;;;;5.89;100.00;97743.91;15291295;19;20018;-64
2024/01/06 13:09:28;;;;;;;4.93;2.85;;;;;;;5.97;100.00;97742.16;15287398;19;20026;-66
2024/01/06 13:14:55;;;;;;;3.53;2.40;;;;;;;6.05;100.00;97749.47;15288405;19;20105;-65
2024/01/06 13:20:20;;;;;;;3.85;2.97;;;;;;;6.10;100.00;97747.19;15283078;19;20081;-65
2024/01/06 13:25:45;;;;;;;4.30;3.20;;;;;;;6.12;100.00;97749.69;15285612;19;20797;-64
2024/01/06 13:31:12;;;;;;;5.25;3.75;;;;;;;6.12;100.00;97750.56;15286886;19;20743;-66
2024/01/06 13:36:37;;;;;;;5.65;4.00;;;;;;;6.14;100.00;97753.06;15288200;19;20397;-66
2024/01/06 13:42:03;;;;;;;4.35;3.20;;;;;;;6.09;100.00;97755.38;15290687;19;20039;-65
2024/01/06 13:47:31;;;;;;;5.38;3.70;;;;;;;6.04;100.00;97761.16;15282752;19;20018;-64
2024/01/06 13:52:55;;;;;;;4.65;3.30;;;;;;;6.00;100.00;97767.78;15273306;19;20011;-64
2024/01/06 13:58:21;;;;;;;3.50;1.58;;;;;;;5.90;100.00;97766.97;15017571;19;5001222;-65
2024/01/06 14:03:48;;;;;;;2.42;1.23;;;;;;;5.83;100.00;97767.53;15282923;19;20045;-65
2024/01/06 14:09:13;;;;;;;2.65;1.20;;;;;;;5.80;100.00;97764.31;15281311;19;20028;-64
2024/01/06 14:14:41;;;;;;;3.35;1.30;;;;;;;5.73;100.00;97766.75;15260900;19;20025;-66
2024/01/06 14:20:12;;;;;;;4.15;1.75;;;;;;;5.68;100.00;97763.69;15286246;19;20010;-65
2024/01/06 14:25:36;;;;;;;3.77;1.60;;;;;;;5.64;100.00;97765.81;15275730;19;20010;-80
2024/01/06 14:31:01;;;;;;;2.88;1.52;;;;;;;5.57;100.00;97771.88;15284601;19;20274;-82
2024/01/06 14:36:28;;;;;;;3.20;1.80;;;;;;;5.47;100.00;97769.22;15301689;19;20086;-80
2024/01/06 14:41:53;;;;;;;3.92;1.80;;;;;;;5.33;100.00;97770.53;15304493;19;20015;-80
2024/01/06 14:47:26;;;;;;;4.40;2.00;;;;;;;5.22;100.00;97768.88;15307181;19;20094;-80
2024/01/06 14:52:55;;;;;;;7.30;2.10;;;;;;;5.15;100.00;97781.94;15304754;19;20016;-80
2024/01/06 14:58:20;;;;;;;5.43;2.25;;;;;;;5.09;100.00;97785.19;15305468;19;20039;-80
2024/01/06 15:03:45;;;;;;;4.45;2.28;;;;;;;5.03;100.00;97796.44;15303815;19;20007;-82
2024/01/06 15:09:13;;;;;;;6.40;3.25;;;;;;;4.98;100.00;97799.53;15307564;19;20018;-80
2024/01/06 15:14:38;;;;;;;4.25;2.58;;;;;;;4.92;100.00;97813.44;15309230;19;20078;-80
2024/01/06 15:20:02;;;;;;;5.78;3.30;;;;;;;4.81;100.00;97819.75;15307890;19;20081;-81
2024/01/06 15:25:30;;;;;;;8.00;4.60;;;;;;;4.70;100.00;97834.09;15304885;19;20011;-79
2024/01/06 15:30:57;;;;;;;6.03;3.97;;;;;;;4.61;100.00;97840.22;15299654;19;20031;-80
2024/01/06 15:36:25;;;;;;;6.05;4.95;;;;;;;4.53;100.00;97843.56;15307223;19;20096;-80
2024/01/06 15:41:53;;;;;;;8.95;6.53;;;;;;;4.49;100.00;97850.19;15291452;19;20089;-81
2024/01/06 15:47:18;;;;;;;11.13;7.55;;;;;;;4.47;100.00;97854.81;15297027;19;20015;-79
2024/01/06 15:52:45;;;;;;;8.80;7.82;;;;;;;4.47;100.00;97865.47;9851162;19;10001937;-81
2024/01/06 15:58:13;;;;;;;12.77;11.02;;;;;;;4.53;100.00;97864.91;15305892;19;20491;-83
2024/01/06 16:03:37;;;;;;;14.93;13.32;;;;;;;4.49;100.00;97863.53;15294050;19;20019;-81
2024/01/06 16:09:02;;;;;;;15.45;13.27;;;;;;;4.46;100.00;97872.66;15306217;19;20019;-80
2024/01/06 16:14:29;;;;;;;18.85;13.95;;;;;;;4.42;100.00;97878.38;15303332;19;20014;-81
2024/01/06 16:19:54;;;;;;;16.85;12.98;;;;;;;4.38;100.00;97882.31;15299259;19;20014;-79
2024/01/06 16:25:23;;;;;;;16.85;13.00;;;;;;;4.37;100.00;97885.94;15297778;19;20372;-79
2024/01/06 16:30:51;;;;;;;15.95;13.50;;;;;;;4.35;100.00;97902.06;15305771;19;20081;-80
2024/01/06 16:36:17;;;;;;;20.13;13.90;;;;;;;4.34;100.00;97899.53;15302665;19;20791;-79
2024/01/06 16:41:42;;;;;;;17.65;14.07;;;;;;;4.29;100.00;97895.44;15293225;19;20023;-56
2024/01/06 16:47:09;;;;;;;16.92;13.95;;;;;;;4.26;100.00;97910.88;14783554;19;10000396;-54
2024/01/06 16:52:36;;;;;;;14.63;11.23;;;;;;;4.19;100.00;97907.91;15291701;19;20018;-54
2024/01/06 16:58:02;;;;;;;16.95;11.77;;;;;;;4.09;100.00;97905.22;15296708;19;20092;-55
2024/01/06 17:03:30;;;;;;;15.77;11.80;;;;;;;4.01;100.00;97913.88;15290255;19;20010;-55
2024/01/06 17:08:54;;;;;;;16.13;14.48;;;;;;;3.94;100.00;97915.34;15288052;19;20039;-56
2024/01/06 17:14:19;;;;;;;20.63;17.58;;;;;;;3.82;100.00;97925.25;15293017;19;20021;-56
2024/01/06 17:19:46;;;;;;;24.15;17.48;;;;;;;3.83;100.00;97934.06;15291642;19;20475;-53
2024/01/06 17:25:12;;;;;;;63.92;19.00;;;;;;;3.76;100.00;97939.13;15289139;19;20038;-53
2024/01/06 17:30:37;;;;;;;47.67;21.85;;;;;;;3.69;100.00;97952.09;15289884;19;20042;-55
2024/01/06 17:36:05;;;;;;;243.27;24.02;;;;;;;3.64;100.00;97954.28;15289248;19;20011;-54
2024/01/06 17:41:30;;;;;;;149.98;22.75;;;;;;;3.49;100.00;97961.75;15294164;19;20043;-56
2024/01/06 17:47:11;;;;;;;349.15;25.23;;;;;;;3.41;100.00;97980.16;15291371;19;20094;-52
2024/01/06 17:52:38;;;;;;;224.88;24.85;;;;;;;3.33;100.00;97983.50;15288855;19;20511;-53
2024/01/06 17:58:04;;;;;;;102.57;25.08;;;;;;;3.27;100.00;97994.63;15291368;19;20030;-53
2024/01/06 18:03:28;;;;;;;236.63;25.42;;;;;;;3.22;100.00;98010.16;15294811;19;20014;-56
2024/01/06 18:08:56;;;;;;;221.68;27.08;;;;;;;3.13;100.00;98014.41;15298400;19;20041;-54
2024/01/06 18:14:20;;;;;;;195.77;25.15;;;;;;;3.08;100.00;98020.09;15310264;19;20088;-54
2024/01/06 18:19:45;;;;;;;130.60;24.42;;;;;;;3.04;100.00;98029.28;15307143;19;20365;-52
2024/01/06 18:25:13;;;;;;;115.22;23.85;;;;;;;2.99;100.00;98035.94;15303731;19;20020;-54
2024/01/06 18:30:38;;;;;;;117.15;23.75;;;;;;;2.91;100.00;98037.41;15303522;19;20014;-57
2024/01/06 18:36:02;;;;;;;238.88;24.70;;;;;;;2.86;100.00;98049.41;15307808;19;20011;-54
2024/01/06 18:41:30;;;;;;;136.82;26.33;;;;;;;2.79;100.00;98049.03;15303720;19;20021;-54
2024/01/06 18:46:54;;;;;;;93.43;26.05;;;;;;;2.76;100.00;98060.75;15304103;19;20365;-51
2024/01/06 18:52:20;;;;;;;245.55;28.90;;;;;;;2.75;100.00;98069.72;15298175;19;20024;-53
2024/01/06 18:57:49;;;;;;;243.32;34.72;;;;;;;2.69;100.00;98070.19;15301925;19;20017;-52
2024/01/06 19:03:14;;;;;;;101.82;34.03;;;;;;;2.63;100.00;98091.94;15301813;19;20020;-51
2024/01/06 19:08:39;;;;;;;61.10;26.90;;;;;;;2.57;100.00;98092.41;15303235;19;20532;-57
2024/01/06 19:14:07;;;;;;;76.35;26.95;;;;;;;2.53;100.00;98093.63;15294630;19;20015;-53
2024/01/06 19:19:33;;;;;;;100.28;29.85;;;;;;;2.50;100.00;98101.84;15302674;19;20364;-54
2024/01/06 19:24:59;;;;;;;112.15;27.67;;;;;;;2.47;100.00;98103.75;15299244;19;20014;-57
2024/01/06 19:30:26;;;;;;;183.35;28.95;;;;;;;2.45;100.00;98112.84;15302667;19;20018;-55
2024/01/06 19:35:51;;;;;;;379.15;30.58;;;;;;;2.39;100.00;98116.81;15293581;19;20019;-53
2024/01/06 19:41:15;;;;;;;541.92;32.83;;;;;;;2.29;100.00;98115.81;15298435;19;20569;-59
2024/01/06 19:46:43;;;;;;;458.67;34.95;;;;;;;2.18;100.00;98124.59;15295436;19;20014;-52
2024/01/06 19:52:07;;;;;;;431.60;32.88;;;;;;;2.10;100.00;98132.28;15298787;19;20038;-54
2024/01/06 19:57:32;;;;;;;391.45;32.22;;;;;;;2.04;100.00;98138.91;15300736;19;20011;-53
2024/01/06 20:03:00;;;;;;;442.10;33.08;;;;;;;1.98;100.00;98145.53;15293774;19;20021;-53
2024/01/06 20:08:29;;;;;;;313.08;31.05;;;;;;;1.87;100.00;98136.66;15297835;19;20363;-54
2024/01/06 20:13:54;;;;;;;333.02;31.15;;;;;;;1.81;100.00;98124.66;15294531;19;20021;-54
2024/01/06 20:19:23;;;;;;;254.07;31.17;;;;;;;1.78;100.00;98144.34;15293847;19;20028;-51
2024/01/06 20:24:47;;;;;;;188.23;31.33;;;;;;;1.75;100.00;98144.56;15285407;19;21117;-54
2024/01/06 20:30:16;;;;;;;289.85;30.52;;;;;;;1.67;100.00;98141.63;15291165;19;20022;-52
2024/01/06 20:35:43;;;;;;;280.30;32.05;;;;;;;1.60;100.00;98146.53;15289202;19;20029;-53
2024/01/06 20:41:09;;;;;;;215.43;31.60;;;;;;;1.57;100.00;98156.53;15293648;19;20382;-53
2024/01/06 20:46:42;;;;;;;214.93;32.45;;;;;;;1.54;100.00;98152.28;15297003;19;20344;-54
2024/01/06 20:52:11;;;;;;;176.68;32.03;;;;;;;1.50;100.00;98156.13;15289651;19;20015;-54
2024/01/06 20:57:36;;;;;;;191.65;31.15;;;;;;;1.54;100.00;98146.97;15293116;19;20021;-56
2024/01/06 21:03:02;;;;;;;78.63;27.08;;;;;;;1.49;100.00;98143.81;15291905;19;20026;-53
2024/01/06 21:08:29;;;;;;;84.75;30.58;;;;;;;1.47;100.00;98148.38;15292074;19;20022;-53
2024/01/06 21:13:54;;;;;;;94.03;30.50;;;;;;;1.37;100.00;98148.19;15289595;19;20022;-51
2024/01/06 21:19:20;;;;;;;105.40;29.63;;;;;;;1.35;100.00;98148.31;15292038;19;20039;-52
2024/01/06 21:24:51;;;;;;;105.75;29.58;;;;;;;1.34;100.00;98156.38;15282735;19;20023;-52
2024/01/06 21:30:18;;;;;;;149.23;29.50;;;;;;;1.32;100.00;98163.59;15282089;19;20371;-52
2024/01/06 21:35:43;;;;;;;129.02;30.20;;;;;;;1.29;100.00;98158.50;15279605;19;20011;-54
2024/01/06 21:41:10;;;;;;;122.03;30.65;;;;;;;1.27;100.00;98163.94;15281081;19;20023;-53
2024/01/06 21:46:41;;;;;;;175.10;29.27;;;;;;;1.23;100.00;98165.94;15286694;19;20480;-55
2024/01/06 21:52:08;;;;;;;164.70;31.17;;;;;;;1.17;100.00;98168.19;15289129;19;20015;-52
2024/01/06 21:57:35;;;;;;;266.20;32.83;;;;;;;1.14;100.00;98171.06;15287532;19;20070;-50
2024/01/06 22:03:00;;;;;;;247.95;33.15;;;;;;;1.11;100.00;98174.78;15287396;19;20026;-54
2024/01/06 22:08:24;;;;;;;351.92;34.95;;;;;;;1.07;100.00;98181.25;15290473;19;20011;-53
2024/01/06 22:13:52;;;;;;;328.27;36.67;;;;;;;1.01;100.00;98181.66;15284019;19;20076;-54
2024/01/06 22:19:23;;;;;;;482.63;38.45;;;;;;;0.98;100.00;98198.66;15267551;19;20025;-57
2024/01/06 22:24:48;;;;;;;368.05;37.83;;;;;;;0.90;100.00;98195.69;15288164;19;20013;-57
2024/01/06 22:30:16;;;;;;;473.13;39.00;;;;;;;0.86;100.00;98200.38;15285114;19;20014;-57
2024/01/06 22:35:42;;;;;;;411.63;39.47;;;;;;;0.76;100.00;98205.44;15285503;19;20025;-58
2024/01/06 22:41:06;;;;;;;363.55;42.80;;;;;;;0.74;100.00;98212.66;15286147;19;20047;-58
2024/01/06 22:46:34;;;;;;;520.50;41.22;;;;;;;0.69;100.00;98225.38;15286443;19;20051;-56
2024/01/06 22:51:58;;;;;;;570.92;43.55;;;;;;;0.66;100.00;98224.72;15284990;19;20471;-55
2024/01/06 22:57:23;;;;;;;522.13;43.88;;;;;;;0.61;100.00;98232.97;15295040;19;20039;-54
2024/01/06 23:02:50;;;;;;;472.65;42.72;;;;;;;0.63;100.00;98241.69;15300134;19;20025;-58
2024/01/06 23:08:15;;;;;;;518.95;43.90;;;;;;;0.71;100.00;98243.81;15296058;19;20029;-58
2024/01/06 23:13:40;;;;;;;534.97;43.97;;;;;;;0.70;100.00;98260.69;15299211;19;20313;-58
2024/01/06 23:19:14;;;;;;;563.78;41.95;;;;;;;0.71;100.00;98252.63;15287879;19;20014;-62
2024/01/06 23:24:39;;;;;;;449.15;39.13;;;;;;;0.69;100.00;98259.84;15297247;19;20025;-58
2024/01/06 23:30:04;;;;;;;207.40;33.78;;;;;;;0.66;100.00;98270.66;15301386;19;20015;-59
2024/01/06 23:35:32;;;;;;;253.73;33.95;;;;;;;0.55;100.00;98281.13;15297413;19;20383;-59
2024/01/06 23:40:56;;;;;;;313.88;34.55;;;;;;;0.46;100.00;98285.22;15300198;19;20018;-58
2024/01/06 23:46:24;;;;;;;344.90;35.40;;;;;;;0.40;100.00;98289.13;15298886;19;20031;-59
2024/01/06 23:51:45;;;;;;;496.30;39.97;;;;;;;0.28;100.00;98282.84;15300559;19;20074;-59
2024/01/06 23:57:09;;;;;;;522.28;42.42;;;;;;;0.21;100.00;98289.47;15297270;19;20021;-58
